sensor_id;sensor_type;location;lat;lon;timestamp;pressure;altitude;pressure_sealevel;temperature;humidity
56944;BME280;42848;42.524;12.052;2023-05-29T00:00:32;96406.00;;;18.03;100.00
56944;BME280;42848;42.524;12.052;2023-05-29T00:02:58;96402.81;;;18.01;100.00
56944;BME280;42848;42.524;12.052;2023-05-29T00:05:24;96399.06;;;18.16;100.00
56944;BME280;42848;42.524;12.052;2023-05-29T00:07:50;96391.81;;;17.97;100.00
56944;BME280;42848;42.524;12.052;2023-05-29T00:10:16;96393.72;;;18.30;100.00
56944;BME280;42848;42.524;12.052;2023-05-29T00:12:42;96392.91;;;18.26;100.00
56944;BME280;42848;42.524;12.052;2023-05-29T00:15:09;96395.03;;;18.03;100.00
56944;BME280;42848;42.524;12.052;2023-05-29T00:17:36;96388.69;;;17.99;100.00
56944;BME280;42848;42.524;12.052;2023-05-29T00:20:02;96377.22;;;17.89;100.00
56944;BME280;42848;42.524;12.052;2023-05-29T00:22:35;96379.13;;;17.85;100.00
56944;BME280;42848;42.524;12.052;2023-05-29T00:25:05;96378.38;;;17.88;100.00
56944;BME280;42848;42.524;12.052;2023-05-29T00:27:31;96382.09;;;18.07;100.00
56944;BME280;42848;42.524;12.052;2023-05-29T00:29:59;96381.00;;;18.15;100.00
56944;BME280;42848;42.524;12.052;2023-05-29T00:32:24;96384.44;;;18.05;100.00
56944;BME280;42848;42.524;12.052;2023-05-29T00:34:51;96376.34;;;18.19;100.00
56944;BME280;42848;42.524;12.052;2023-05-29T00:37:17;96374.72;;;18.11;100.00
56944;BME280;42848;42.524;12.052;2023-05-29T00:39:42;96377.88;;;18.16;100.00
56944;BME280;42848;42.524;12.052;2023-05-29T00:42:08;96370.78;;;18.12;100.00
56944;BME280;42848;42.524;12.052;2023-05-29T00:44:34;96373.97;;;18.17;100.00
56944;BME280;42848;42.524;12.052;2023-05-29T00:47:01;96374.75;;;18.18;100.00
56944;BME280;42848;42.524;12.052;2023-05-29T00:49:27;96375.69;;;18.33;100.00
56944;BME280;42848;42.524;12.052;2023-05-29T00:51:54;96377.09;;;18.16;100.00
56944;BME280;42848;42.524;12.052;2023-05-29T00:54:26;96366.97;;;18.24;100.00
56944;BME280;42848;42.524;12.052;2023-05-29T00:56:52;96366.09;;;18.16;100.00
56944;BME280;42848;42.524;12.052;2023-05-29T00:59:19;96368.44;;;18.14;100.00
56944;BME280;42848;42.524;12.052;2023-05-29T01:01:48;96362.84;;;18.03;100.00
56944;BME280;42848;42.524;12.052;2023-05-29T01:04:15;96369.09;;;18.00;100.00
56944;BME280;42848;42.524;12.052;2023-05-29T01:06:42;96367.25;;;17.74;100.00
56944;BME280;42848;42.524;12.052;2023-05-29T01:09:10;96361.72;;;18.08;100.00
56944;BME280;42848;42.524;12.052;2023-05-29T01:14:23;96359.22;;;17.62;100.00
56944;BME280;42848;42.524;12.052;2023-05-29T01:18:07;96359.88;;;17.82;100.00
56944;BME280;42848;42.524;12.052;2023-05-29T01:28:20;96356.97;;;18.05;100.00
56944;BME280;42848;42.524;12.052;2023-05-29T01:30:50;96358.84;;;17.97;100.00
56944;BME280;42848;42.524;12.052;2023-05-29T01:33:17;96356.56;;;18.03;100.00
56944;BME280;42848;42.524;12.052;2023-05-29T01:35:42;96364.47;;;18.08;100.00
56944;BME280;42848;42.524;12.052;2023-05-29T01:38:08;96359.31;;;17.69;100.00
56944;BME280;42848;42.524;12.052;2023-05-29T01:40:34;96360.31;;;17.87;100.00
56944;BME280;42848;42.524;12.052;2023-05-29T01:43:01;96362.88;;;17.70;100.00
56944;BME280;42848;42.524;12.052;2023-05-29T01:45:28;96366.28;;;17.63;100.00
56944;BME280;42848;42.524;12.052;2023-05-29T01:47:54;96368.72;;;17.68;100.00
56944;BME280;42848;42.524;12.052;2023-05-29T01:50:20;96361.97;;;17.62;100.00
56944;BME280;42848;42.524;12.052;2023-05-29T01:52:47;96374.19;;;17.68;100.00
56944;BME280;42848;42.524;12.052;2023-05-29T01:55:13;96374.06;;;17.57;100.00
56944;BME280;42848;42.524;12.052;2023-05-29T01:57:40;96371.22;;;17.47;100.00
56944;BME280;42848;42.524;12.052;2023-05-29T02:00:07;96369.88;;;17.67;100.00
56944;BME280;42848;42.524;12.052;2023-05-29T02:02:38;96364.63;;;17.55;100.00
56944;BME280;42848;42.524;12.052;2023-05-29T02:05:06;96375.59;;;17.55;100.00
56944;BME280;42848;42.524;12.052;2023-05-29T02:07:34;96373.69;;;17.59;100.00
56944;BME280;42848;42.524;12.052;2023-05-29T02:09:59;96373.72;;;17.29;100.00
56944;BME280;42848;42.524;12.052;2023-05-29T02:12:25;96371.53;;;17.42;100.00
56944;BME280;42848;42.524;12.052;2023-05-29T02:14:51;96360.28;;;17.54;100.00
56944;BME280;42848;42.524;12.052;2023-05-29T02:17:17;96364.91;;;17.46;100.00
56944;BME280;42848;42.524;12.052;2023-05-29T02:19:44;96356.91;;;17.04;100.00
56944;BME280;42848;42.524;12.052;2023-05-29T02:22:10;96353.75;;;17.02;100.00
56944;BME280;42848;42.524;12.052;2023-05-29T02:24:35;96359.13;;;17.21;100.00
56944;BME280;42848;42.524;12.052;2023-05-29T02:27:01;96353.47;;;17.41;100.00
56944;BME280;42848;42.524;12.052;2023-05-29T02:29:28;96354.88;;;17.27;100.00
56944;BME280;42848;42.524;12.052;2023-05-29T02:31:54;96354.63;;;17.10;100.00
56944;BME280;42848;42.524;12.052;2023-05-29T02:34:19;96355.56;;;17.51;100.00
56944;BME280;42848;42.524;12.052;2023-05-29T02:36:49;96346.31;;;17.32;100.00
56944;BME280;42848;42.524;12.052;2023-05-29T02:39:15;96347.09;;;17.33;100.00
56944;BME280;42848;42.524;12.052;2023-05-29T02:41:40;96344.50;;;17.14;100.00
56944;BME280;42848;42.524;12.052;2023-05-29T02:44:06;96347.25;;;17.14;100.00
56944;BME280;42848;42.524;12.052;2023-05-29T02:46:31;96354.47;;;16.99;100.00
56944;BME280;42848;42.524;12.052;2023-05-29T02:48:57;96347.00;;;17.26;100.00
56944;BME280;42848;42.524;12.052;2023-05-29T02:51:23;96350.69;;;17.07;100.00
56944;BME280;42848;42.524;12.052;2023-05-29T02:53:48;96347.63;;;17.12;100.00
56944;BME280;42848;42.524;12.052;2023-05-29T02:56:14;96350.78;;;17.14;100.00
56944;BME280;42848;42.524;12.052;2023-05-29T02:58:42;96344.38;;;17.03;100.00
56944;BME280;42848;42.524;12.052;2023-05-29T03:01:07;96353.22;;;17.19;100.00
56944;BME280;42848;42.524;12.052;2023-05-29T03:03:33;96356.66;;;17.13;100.00
56944;BME280;42848;42.524;12.052;2023-05-29T03:05:59;96358.88;;;17.03;100.00
56944;BME280;42848;42.524;12.052;2023-05-29T03:08:26;96347.41;;;16.98;100.00
56944;BME280;42848;42.524;12.052;2023-05-29T03:10:54;96352.91;;;16.98;100.00
56944;BME280;42848;42.524;12.052;2023-05-29T03:13:20;96351.53;;;16.85;100.00
56944;BME280;42848;42.524;12.052;2023-05-29T03:15:46;96353.53;;;16.88;100.00
56944;BME280;42848;42.524;12.052;2023-05-29T03:18:12;96356.63;;;16.83;100.00
56944;BME280;42848;42.524;12.052;2023-05-29T03:20:38;96350.84;;;16.91;100.00
56944;BME280;42848;42.524;12.052;2023-05-29T03:23:03;96347.41;;;16.98;100.00
56944;BME280;42848;42.524;12.052;2023-05-29T03:25:29;96342.91;;;16.83;100.00
56944;BME280;42848;42.524;12.052;2023-05-29T03:27:55;96348.47;;;16.90;100.00
56944;BME280;42848;42.524;12.052;2023-05-29T03:30:21;96342.69;;;16.95;100.00
56944;BME280;42848;42.524;12.052;2023-05-29T03:32:47;96349.38;;;16.71;100.00
56944;BME280;42848;42.524;12.052;2023-05-29T03:35:12;96350.94;;;16.72;100.00
56944;BME280;42848;42.524;12.052;2023-05-29T03:37:38;96352.41;;;16.66;100.00
56944;BME280;42848;42.524;12.052;2023-05-29T03:40:04;96349.97;;;16.84;100.00
56944;BME280;42848;42.524;12.052;2023-05-29T03:42:30;96352.22;;;16.78;100.00
56944;BME280;42848;42.524;12.052;2023-05-29T03:44:56;96351.75;;;16.72;100.00
56944;BME280;42848;42.524;12.052;2023-05-29T03:47:22;96343.81;;;16.67;100.00
56944;BME280;42848;42.524;12.052;2023-05-29T03:49:48;96349.97;;;16.61;100.00
56944;BME280;42848;42.524;12.052;2023-05-29T03:52:14;96343.69;;;16.60;100.00
56944;BME280;42848;42.524;12.052;2023-05-29T03:54:40;96346.94;;;16.66;100.00
56944;BME280;42848;42.524;12.052;2023-05-29T03:57:05;96344.91;;;16.63;100.00
56944;BME280;42848;42.524;12.052;2023-05-29T03:59:32;96348.75;;;16.58;100.00
56944;BME280;42848;42.524;12.052;2023-05-29T04:01:58;96346.06;;;16.62;100.00
56944;BME280;42848;42.524;12.052;2023-05-29T04:04:23;96339.88;;;16.65;100.00
56944;BME280;42848;42.524;12.052;2023-05-29T04:06:49;96347.78;;;16.70;100.00
56944;BME280;42848;42.524;12.052;2023-05-29T04:09:15;96339.19;;;16.71;100.00
56944;BME280;42848;42.524;12.052;2023-05-29T04:11:41;96346.25;;;16.72;100.00
56944;BME280;42848;42.524;12.052;2023-05-29T04:14:07;96343.09;;;16.70;100.00
56944;BME280;42848;42.524;12.052;2023-05-29T04:16:33;96343.97;;;16.74;100.00
56944;BME280;42848;42.524;12.052;2023-05-29T04:18:58;96345.31;;;16.88;100.00
56944;BME280;42848;42.524;12.052;2023-05-29T04:21:24;96341.00;;;16.87;100.00
56944;BME280;42848;42.524;12.052;2023-05-29T04:23:50;96344.84;;;16.82;100.00
56944;BME280;42848;42.524;12.052;2023-05-29T04:26:15;96343.25;;;16.81;100.00
56944;BME280;42848;42.524;12.052;2023-05-29T04:28:41;96339.31;;;16.78;100.00
56944;BME280;42848;42.524;12.052;2023-05-29T04:31:07;96351.22;;;16.90;100.00
56944;BME280;42848;42.524;12.052;2023-05-29T04:33:33;96349.72;;;16.92;100.00
56944;BME280;42848;42.524;12.052;2023-05-29T04:36:03;96352.53;;;16.99;100.00
56944;BME280;42848;42.524;12.052;2023-05-29T04:38:29;96349.06;;;17.02;100.00
56944;BME280;42848;42.524;12.052;2023-05-29T04:40:56;96347.91;;;17.03;100.00
56944;BME280;42848;42.524;12.052;2023-05-29T04:43:25;96353.84;;;17.09;100.00
56944;BME280;42848;42.524;12.052;2023-05-29T04:45:53;96347.53;;;17.05;100.00
56944;BME280;42848;42.524;12.052;2023-05-29T04:48:19;96349.88;;;17.06;100.00
56944;BME280;42848;42.524;12.052;2023-05-29T04:50:45;96343.81;;;17.20;100.00
56944;BME280;42848;42.524;12.052;2023-05-29T04:53:10;96339.84;;;17.18;100.00
56944;BME280;42848;42.524;12.052;2023-05-29T04:55:36;96342.41;;;17.33;100.00
56944;BME280;42848;42.524;12.052;2023-05-29T04:58:02;96344.63;;;17.24;100.00
56944;BME280;42848;42.524;12.052;2023-05-29T05:00:28;96353.19;;;17.49;100.00
56944;BME280;42848;42.524;12.052;2023-05-29T05:02:53;96361.25;;;17.35;100.00
56944;BME280;42848;42.524;12.052;2023-05-29T05:05:19;96356.50;;;17.32;100.00
56944;BME280;42848;42.524;12.052;2023-05-29T05:07:45;96364.63;;;17.55;100.00
56944;BME280;42848;42.524;12.052;2023-05-29T05:10:11;96363.69;;;17.44;100.00
56944;BME280;42848;42.524;12.052;2023-05-29T05:12:37;96368.03;;;17.45;100.00
56944;BME280;42848;42.524;12.052;2023-05-29T05:15:03;96369.28;;;17.51;100.00
56944;BME280;42848;42.524;12.052;2023-05-29T05:17:28;96362.22;;;17.50;100.00
56944;BME280;42848;42.524;12.052;2023-05-29T05:19:54;96362.53;;;17.45;100.00
56944;BME280;42848;42.524;12.052;2023-05-29T05:22:20;96364.78;;;17.35;100.00
56944;BME280;42848;42.524;12.052;2023-05-29T05:24:46;96358.28;;;17.47;100.00
56944;BME280;42848;42.524;12.052;2023-05-29T05:27:11;96362.09;;;17.39;100.00
56944;BME280;42848;42.524;12.052;2023-05-29T05:29:37;96362.03;;;17.35;100.00
56944;BME280;42848;42.524;12.052;2023-05-29T05:32:03;96365.28;;;17.45;100.00
56944;BME280;42848;42.524;12.052;2023-05-29T05:34:29;96360.53;;;17.42;100.00
56944;BME280;42848;42.524;12.052;2023-05-29T05:36:55;96359.38;;;17.43;100.00
56944;BME280;42848;42.524;12.052;2023-05-29T05:39:20;96358.28;;;17.47;100.00
56944;BME280;42848;42.524;12.052;2023-05-29T05:41:46;96358.31;;;17.51;100.00
56944;BME280;42848;42.524;12.052;2023-05-29T05:44:12;96357.56;;;17.54;100.00
56944;BME280;42848;42.524;12.052;2023-05-29T05:46:38;96359.97;;;17.59;100.00
56944;BME280;42848;42.524;12.052;2023-05-29T05:49:03;96353.63;;;17.55;100.00
56944;BME280;42848;42.524;12.052;2023-05-29T05:51:29;96361.16;;;17.58;100.00
56944;BME280;42848;42.524;12.052;2023-05-29T05:53:56;96359.22;;;17.62;100.00
56944;BME280;42848;42.524;12.052;2023-05-29T05:56:21;96362.38;;;17.64;100.00
56944;BME280;42848;42.524;12.052;2023-05-29T05:58:47;96361.75;;;17.74;100.00
56944;BME280;42848;42.524;12.052;2023-05-29T06:01:15;96361.75;;;17.74;100.00
56944;BME280;42848;42.524;12.052;2023-05-29T06:03:41;96364.19;;;17.83;100.00
56944;BME280;42848;42.524;12.052;2023-05-29T06:06:06;96362.25;;;17.83;100.00
56944;BME280;42848;42.524;12.052;2023-05-29T06:08:34;96375.16;;;17.83;100.00
56944;BME280;42848;42.524;12.052;2023-05-29T06:11:00;96363.47;;;17.89;100.00
56944;BME280;42848;42.524;12.052;2023-05-29T06:13:25;96371.41;;;17.95;100.00
56944;BME280;42848;42.524;12.052;2023-05-29T06:15:51;96369.94;;;18.04;100.00
56944;BME280;42848;42.524;12.052;2023-05-29T06:18:17;96366.78;;;18.06;100.00
56944;BME280;42848;42.524;12.052;2023-05-29T06:20:42;96369.22;;;18.11;100.00
56944;BME280;42848;42.524;12.052;2023-05-29T06:23:08;96369.25;;;18.18;100.00
56944;BME280;42848;42.524;12.052;2023-05-29T06:25:34;96364.59;;;18.22;100.00
56944;BME280;42848;42.524;12.052;2023-05-29T06:28:00;96374.34;;;18.16;100.00
56944;BME280;42848;42.524;12.052;2023-05-29T06:30:26;96372.06;;;18.22;100.00
56944;BME280;42848;42.524;12.052;2023-05-29T06:32:52;96365.34;;;18.19;100.00
56944;BME280;42848;42.524;12.052;2023-05-29T06:35:17;96365.81;;;18.25;100.00
56944;BME280;42848;42.524;12.052;2023-05-29T06:37:45;96371.31;;;18.28;100.00
56944;BME280;42848;42.524;12.052;2023-05-29T06:40:14;96368.63;;;18.32;100.00
56944;BME280;42848;42.524;12.052;2023-05-29T06:42:41;96363.22;;;18.42;100.00
56944;BME280;42848;42.524;12.052;2023-05-29T06:45:11;96365.66;;;18.55;100.00
56944;BME280;42848;42.524;12.052;2023-05-29T06:47:41;96357.88;;;18.64;100.00
56944;BME280;42848;42.524;12.052;2023-05-29T06:50:07;96356.47;;;18.77;100.00
56944;BME280;42848;42.524;12.052;2023-05-29T06:52:33;96368.97;;;18.71;100.00
56944;BME280;42848;42.524;12.052;2023-05-29T06:54:59;96362.03;;;18.84;100.00
56944;BME280;42848;42.524;12.052;2023-05-29T06:57:25;96369.88;;;18.86;100.00
56944;BME280;42848;42.524;12.052;2023-05-29T06:59:50;96373.81;;;18.88;100.00
56944;BME280;42848;42.524;12.052;2023-05-29T07:02:16;96369.03;;;18.78;100.00
56944;BME280;42848;42.524;12.052;2023-05-29T07:04:41;96369.19;;;18.99;100.00
56944;BME280;42848;42.524;12.052;2023-05-29T07:07:07;96374.72;;;19.03;100.00
56944;BME280;42848;42.524;12.052;2023-05-29T07:09:33;96380.13;;;18.92;100.00
56944;BME280;42848;42.524;12.052;2023-05-29T07:11:58;96388.03;;;18.97;100.00
56944;BME280;42848;42.524;12.052;2023-05-29T07:14:24;96381.34;;;18.98;100.00
56944;BME280;42848;42.524;12.052;2023-05-29T07:16:50;96388.09;;;19.08;100.00
56944;BME280;42848;42.524;12.052;2023-05-29T07:19:15;96381.06;;;19.14;100.00
56944;BME280;42848;42.524;12.052;2023-05-29T07:21:42;96381.13;;;19.21;100.00
56944;BME280;42848;42.524;12.052;2023-05-29T07:24:08;96375.66;;;19.32;100.00
56944;BME280;42848;42.524;12.052;2023-05-29T07:26:34;96382.31;;;19.27;100.00
56944;BME280;42848;42.524;12.052;2023-05-29T07:28:59;96383.63;;;19.48;100.00
56944;BME280;42848;42.524;12.052;2023-05-29T07:31:25;96384.38;;;19.45;100.00
56944;BME280;42848;42.524;12.052;2023-05-29T07:33:50;96379.69;;;19.52;100.00
56944;BME280;42848;42.524;12.052;2023-05-29T07:36:16;96374.94;;;19.42;100.00
56944;BME280;42848;42.524;12.052;2023-05-29T07:38:45;96380.06;;;19.47;100.00
56944;BME280;42848;42.524;12.052;2023-05-29T07:41:10;96365.50;;;19.43;100.00
56944;BME280;42848;42.524;12.052;2023-05-29T07:43:36;96375.72;;;19.43;100.00
56944;BME280;42848;42.524;12.052;2023-05-29T07:46:01;96370.22;;;19.46;100.00
56944;BME280;42848;42.524;12.052;2023-05-29T07:48:27;96379.38;;;19.65;100.00
56944;BME280;42848;42.524;12.052;2023-05-29T07:50:53;96372.34;;;19.71;100.00
56944;BME280;42848;42.524;12.052;2023-05-29T07:53:18;96370.38;;;19.68;100.00
56944;BME280;42848;42.524;12.052;2023-05-29T07:55:44;96373.09;;;19.64;100.00
56944;BME280;42848;42.524;12.052;2023-05-29T07:58:10;96370.00;;;19.83;100.00
56944;BME280;42848;42.524;12.052;2023-05-29T08:00:37;96371.94;;;19.72;100.00
56944;BME280;42848;42.524;12.052;2023-05-29T08:03:04;96372.03;;;19.97;100.00
56944;BME280;42848;42.524;12.052;2023-05-29T08:05:30;96368.47;;;20.00;100.00
56944;BME280;42848;42.524;12.052;2023-05-29T08:07:57;96367.25;;;19.83;100.00
56944;BME280;42848;42.524;12.052;2023-05-29T08:10:24;96372.81;;;20.01;100.00
56944;BME280;42848;42.524;12.052;2023-05-29T08:12:49;96377.53;;;19.94;100.00
56944;BME280;42848;42.524;12.052;2023-05-29T08:15:18;96374.38;;;19.88;100.00
56944;BME280;42848;42.524;12.052;2023-05-29T08:17:44;96375.19;;;19.99;100.00
56944;BME280;42848;42.524;12.052;2023-05-29T08:20:10;96373.19;;;19.85;100.00
56944;BME280;42848;42.524;12.052;2023-05-29T08:22:36;96370.44;;;19.93;100.00
56944;BME280;42848;42.524;12.052;2023-05-29T08:25:01;96378.75;;;20.03;100.00
56944;BME280;42848;42.524;12.052;2023-05-29T08:27:27;96383.13;;;20.26;100.00
56944;BME280;42848;42.524;12.052;2023-05-29T08:29:52;96383.13;;;20.33;100.00
56944;BME280;42848;42.524;12.052;2023-05-29T08:32:20;96382.34;;;20.22;100.00
56944;BME280;42848;42.524;12.052;2023-05-29T08:34:47;96394.56;;;20.35;100.00
56944;BME280;42848;42.524;12.052;2023-05-29T08:37:13;96391.75;;;20.17;100.00
56944;BME280;42848;42.524;12.052;2023-05-29T08:39:39;96380.72;;;20.21;100.00
56944;BME280;42848;42.524;12.052;2023-05-29T08:42:07;96396.13;;;20.32;100.00
56944;BME280;42848;42.524;12.052;2023-05-29T08:44:39;96397.31;;;20.35;100.00
56944;BME280;42848;42.524;12.052;2023-05-29T08:47:07;96401.31;;;20.52;100.00
56944;BME280;42848;42.524;12.052;2023-05-29T08:49:42;96395.75;;;20.41;100.00
56944;BME280;42848;42.524;12.052;2023-05-29T08:52:15;96402.09;;;20.66;100.00
56944;BME280;42848;42.524;12.052;2023-05-29T08:54:41;96384.34;;;20.74;100.00
56944;BME280;42848;42.524;12.052;2023-05-29T08:57:07;96390.28;;;20.73;100.00
56944;BME280;42848;42.524;12.052;2023-05-29T08:59:34;96392.63;;;20.74;100.00
56944;BME280;42848;42.524;12.052;2023-05-29T09:02:03;96397.75;;;20.72;100.00
56944;BME280;42848;42.524;12.052;2023-05-29T09:04:28;96399.75;;;20.79;100.00
56944;BME280;42848;42.524;12.052;2023-05-29T09:06:58;96396.19;;;20.96;100.00
56944;BME280;42848;42.524;12.052;2023-05-29T09:09:25;96391.84;;;20.92;100.00
56944;BME280;42848;42.524;12.052;2023-05-29T09:11:53;96395.41;;;20.85;100.00
56944;BME280;42848;42.524;12.052;2023-05-29T09:14:38;96391.06;;;20.88;100.00
56944;BME280;42848;42.524;12.052;2023-05-29T09:17:05;96389.47;;;21.08;100.00
56944;BME280;42848;42.524;12.052;2023-05-29T09:19:32;96403.66;;;21.32;100.00
56944;BME280;42848;42.524;12.052;2023-05-29T09:22:08;96398.13;;;21.10;100.00
56944;BME280;42848;42.524;12.052;2023-05-29T09:24:36;96399.72;;;21.11;100.00
56944;BME280;42848;42.524;12.052;2023-05-29T09:27:04;96394.63;;;20.95;100.00
56944;BME280;42848;42.524;12.052;2023-05-29T09:29:31;96406.41;;;21.17;100.00
56944;BME280;42848;42.524;12.052;2023-05-29T09:31:58;96397.72;;;21.19;100.00
56944;BME280;42848;42.524;12.052;2023-05-29T09:34:25;96407.63;;;21.31;100.00
56944;BME280;42848;42.524;12.052;2023-05-29T09:37:01;96400.91;;;21.32;100.00
56944;BME280;42848;42.524;12.052;2023-05-29T09:39:46;96401.28;;;21.23;100.00
56944;BME280;42848;42.524;12.052;2023-05-29T09:42:13;96398.16;;;21.32;98.04
56944;BME280;42848;42.524;12.052;2023-05-29T09:44:44;96403.66;;;21.24;97.96
56944;BME280;42848;42.524;12.052;2023-05-29T09:47:14;96400.44;;;21.54;100.00
56944;BME280;42848;42.524;12.052;2023-05-29T09:49:41;96397.28;;;21.52;100.00
56944;BME280;42848;42.524;12.052;2023-05-29T09:52:11;96405.63;;;21.42;97.66
56944;BME280;42848;42.524;12.052;2023-05-29T09:54:44;96393.38;;;21.50;100.00
56944;BME280;42848;42.524;12.052;2023-05-29T09:57:16;96403.50;;;21.81;100.00
56944;BME280;42848;42.524;12.052;2023-05-29T09:59:46;96405.09;;;21.75;100.00
56944;BME280;42848;42.524;12.052;2023-05-29T10:02:17;96398.06;;;21.60;87.84
56944;BME280;42848;42.524;12.052;2023-05-29T10:04:44;96398.84;;;21.57;90.99
56944;BME280;42848;42.524;12.052;2023-05-29T10:07:24;96401.59;;;21.64;94.59
56944;BME280;42848;42.524;12.052;2023-05-29T10:10:00;96393.66;;;21.80;100.00
56944;BME280;42848;42.524;12.052;2023-05-29T10:12:27;96397.16;;;21.84;100.00
56944;BME280;42848;42.524;12.052;2023-05-29T10:14:56;96389.19;;;22.08;100.00
56944;BME280;42848;42.524;12.052;2023-05-29T10:17:32;96400.63;;;22.10;95.92
56944;BME280;42848;42.524;12.052;2023-05-29T10:20:01;96392.44;;;21.85;90.18
56944;BME280;42848;42.524;12.052;2023-05-29T10:22:28;96394.72;;;22.01;89.12
56944;BME280;42848;42.524;12.052;2023-05-29T10:24:57;96397.44;;;22.22;92.98
56944;BME280;42848;42.524;12.052;2023-05-29T10:27:23;96396.13;;;22.37;83.91
56944;BME280;42848;42.524;12.052;2023-05-29T10:30:01;96395.44;;;22.23;90.28
56944;BME280;42848;42.524;12.052;2023-05-29T10:32:43;96394.72;;;22.04;90.42
56944;BME280;42848;42.524;12.052;2023-05-29T10:35:25;96395.44;;;22.19;95.87
56944;BME280;42848;42.524;12.052;2023-05-29T10:38:02;96387.97;;;22.16;92.75
56944;BME280;42848;42.524;12.052;2023-05-29T10:40:35;96389.19;;;22.08;86.40
56944;BME280;42848;42.524;12.052;2023-05-29T10:43:01;96397.09;;;22.13;87.95
56944;BME280;42848;42.524;12.052;2023-05-29T10:50:42;96391.13;;;22.18;81.35
56944;BME280;42848;42.524;12.052;2023-05-29T10:53:09;96386.31;;;22.33;84.16
56944;BME280;42848;42.524;12.052;2023-05-29T10:55:36;96396.63;;;22.25;76.03
56944;BME280;42848;42.524;12.052;2023-05-29T10:58:06;96395.81;;;22.21;78.00
56944;BME280;42848;42.524;12.052;2023-05-29T11:00:33;96399.78;;;22.20;79.10
56944;BME280;42848;42.524;12.052;2023-05-29T11:03:03;96387.50;;;22.28;79.49
56944;BME280;42848;42.524;12.052;2023-05-29T11:05:29;96386.91;;;22.58;80.12
56944;BME280;42848;42.524;12.052;2023-05-29T11:08:00;96396.06;;;22.52;79.17
56944;BME280;42848;42.524;12.052;2023-05-29T11:13:53;96394.44;;;22.54;73.99
56944;BME280;42848;42.524;12.052;2023-05-29T11:18:55;96387.34;;;22.53;69.03
56944;BME280;42848;42.524;12.052;2023-05-29T11:24:00;96391.59;;;22.65;67.58
56944;BME280;42848;42.524;12.052;2023-05-29T11:26:32;96385.19;;;22.75;72.14
56944;BME280;42848;42.524;12.052;2023-05-29T11:29:03;96385.59;;;22.77;71.33
56944;BME280;42848;42.524;12.052;2023-05-29T11:31:36;96382.59;;;22.54;68.13
56944;BME280;42848;42.524;12.052;2023-05-29T11:34:03;96383.22;;;22.76;68.75
56944;BME280;42848;42.524;12.052;2023-05-29T11:36:32;96379.22;;;22.80;68.88
56944;BME280;42848;42.524;12.052;2023-05-29T11:38:59;96374.28;;;23.06;69.11
56944;BME280;42848;42.524;12.052;2023-05-29T11:41:26;96374.97;;;23.17;64.96
56944;BME280;42848;42.524;12.052;2023-05-29T11:44:02;96369.75;;;23.64;75.10
56944;BME280;42848;42.524;12.052;2023-05-29T11:46:28;96372.16;;;23.62;71.76
56944;BME280;42848;42.524;12.052;2023-05-29T11:48:58;96362.94;;;23.34;58.80
56944;BME280;42848;42.524;12.052;2023-05-29T11:51:25;96358.28;;;23.62;59.56
56944;BME280;42848;42.524;12.052;2023-05-29T11:53:51;96356.34;;;23.55;59.32
56944;BME280;42848;42.524;12.052;2023-05-29T11:56:28;96351.19;;;23.61;65.54
56944;BME280;42848;42.524;12.052;2023-05-29T11:58:55;96353.59;;;23.55;60.14
56944;BME280;42848;42.524;12.052;2023-05-29T12:01:26;96349.13;;;23.68;65.85
56944;BME280;42848;42.524;12.052;2023-05-29T12:03:53;96346.91;;;23.87;75.36
56944;BME280;42848;42.524;12.052;2023-05-29T12:06:32;96339.69;;;23.59;80.81
56944;BME280;42848;42.524;12.052;2023-05-29T12:08:59;96353.91;;;23.64;81.45
56944;BME280;42848;42.524;12.052;2023-05-29T12:11:24;96344.34;;;23.69;78.74
56944;BME280;42848;42.524;12.052;2023-05-29T12:14:01;96340.19;;;23.84;78.66
56944;BME280;42848;42.524;12.052;2023-05-29T12:16:28;96339.53;;;23.73;83.27
56944;BME280;42848;42.524;12.052;2023-05-29T12:18:55;96344.56;;;23.47;86.87
56944;BME280;42848;42.524;12.052;2023-05-29T12:21:22;96343.13;;;23.36;84.74
56944;BME280;42848;42.524;12.052;2023-05-29T12:23:48;96345.25;;;23.21;85.29
56944;BME280;42848;42.524;12.052;2023-05-29T12:26:16;96336.19;;;23.17;87.18
56944;BME280;42848;42.524;12.052;2023-05-29T12:28:44;96337.13;;;23.03;86.65
56944;BME280;42848;42.524;12.052;2023-05-29T12:31:11;96326.84;;;23.04;85.36
56944;BME280;42848;42.524;12.052;2023-05-29T12:33:43;96324.84;;;23.76;84.53
56944;BME280;42848;42.524;12.052;2023-05-29T12:36:11;96321.97;;;23.83;84.31
56944;BME280;42848;42.524;12.052;2023-05-29T12:38:51;96327.38;;;23.94;80.10
56944;BME280;42848;42.524;12.052;2023-05-29T12:41:27;96308.06;;;24.13;81.29
56944;BME280;42848;42.524;12.052;2023-05-29T12:43:57;96305.88;;;24.55;76.07
56944;BME280;42848;42.524;12.052;2023-05-29T12:46:24;96306.94;;;24.38;78.56
56944;BME280;42848;42.524;12.052;2023-05-29T12:48:55;96309.09;;;24.27;75.77
56944;BME280;42848;42.524;12.052;2023-05-29T12:51:27;96303.97;;;24.52;74.76
56944;BME280;42848;42.524;12.052;2023-05-29T12:53:54;96298.50;;;24.68;65.04
56944;BME280;42848;42.524;12.052;2023-05-29T12:56:24;96305.91;;;24.79;65.59
56944;BME280;42848;42.524;12.052;2023-05-29T12:58:52;96304.28;;;25.01;64.56
56944;BME280;42848;42.524;12.052;2023-05-29T13:01:18;96301.91;;;25.03;70.57
56944;BME280;42848;42.524;12.052;2023-05-29T13:03:43;96296.41;;;25.00;70.14
56944;BME280;42848;42.524;12.052;2023-05-29T13:06:10;96298.81;;;24.98;73.17
56944;BME280;42848;42.524;12.052;2023-05-29T13:08:36;96294.53;;;24.93;74.22